Terminal Aerodrome Forecast
Issued by NWS

Home | Current Version | Previous Version | Text Only | Print | Product List | Glossary On
Versions: 1 2 3 4 5 6 7 8 9 10 11 12 13 14 15 16 17 18 19 20 21 22
078
FTUS46 KSTO 161804 AAA
TAFSMF
TAF AMD
KSMF 161804Z 1618/1718 35007KT 4SM BR OVC010
      TEMPO 1618/1621 1SM BR OVC005
     FM162200 34005KT 5SM BR OVC030
     FM170500 VRB02KT 1 1/2SM BR OVC010=

USA.gov is the U.S. government's official web portal to all federal, state and local government web resources and services.